SCCI/PUQ METAR and TAF weather

Enter ICAO airport designator
Station Type Date Time Source
SCCI METAR 2022/06/28 15:00 UTC NOAA

SCCI 281500Z 32005KT 9999 FEW040 BKN100 01/M02 Q0987 NOSIG


Station Type Date Time Source
SCCI Decoded METAR 2022/06/28 15:00 UTC NOAA

Punta Arenas, Chile (SCCI) 53-00S 070-51W 33M
Jun 28, 2022 - 11:00 AM EDT / 2022.06.28 1500 UTC
Wind: from the NW (320 degrees) at 6 MPH (5 KT):0
Visibility: greater than 7 mile(s):0
Sky conditions: mostly cloudy
Temperature: 33 F (1 C)
Windchill: 26 F (-3 C):1
Dew Point: 28 F (-2 C)
Relative Humidity: 80%
Pressure (altimeter): 29.15 in. Hg (0987 hPa)
ob: SCCI 281500Z 32005KT 9999 FEW040 BKN100 01/M02 Q0987 NOSIG
cycle: 15

Station Type Date Time Source
SCCI TAF 2022/06/28 12:03 UTC NOAA

TAF SCCI 281020Z 2812/2912 34006KT 9999 SCT040 TNM00/2812Z TX06/2818Z
BECMG 2812/2814 28011KT PROB40
TEMPO 2816/2818 -SHRA BKN020
TEMPO 2819/2821 SCT012 BKN030
BECMG 2823/2901 26016KT
BECMG 2908/2910 SHRA SCT020 BKN035

Example: see airport list